Time;durP1;ratioP1;P1;durP2;ratioP2;P2;SDS_P1;SDS_P2;PMS_P1;PMS_P2;Temp;Humidity;BMP_temperature;BMP_pressure;BME280_temperature;BME280_humidity;BME280_pressure;Samples;Min_cycle;Max_cycle;Signal;HPM_P1;HPM_P2
2023/12/27 00:00:21;;;;;;;;;;;;;;;2.83;100.00;102052.59;5058704;28;19924;-74
2023/12/27 00:02:48;;;;;;;;;;;;;;;2.80;100.00;102057.66;5059994;28;19920;-74
2023/12/27 00:05:13;;;;;;;;;;;;;;;2.74;100.00;102043.66;5057693;28;19924;-74
2023/12/27 00:07:39;;;;;;;;;;;;;;;2.71;100.00;102051.28;5055302;28;19974;-75
2023/12/27 00:10:04;;;;;;;;;;;;;;;2.66;100.00;102041.56;5059580;28;19985;-75
2023/12/27 00:12:30;;;;;;;;;;;;;;;2.68;100.00;102046.00;5055163;28;19986;-75
2023/12/27 00:14:55;;;;;;;;;;;;;;;2.77;100.00;102041.19;5060724;28;19995;-75
2023/12/27 00:17:20;;;;;;;;;;;;;;;2.72;100.00;102024.59;5077730;28;20365;-75
2023/12/27 00:19:46;;;;;;;;;;;;;;;2.72;100.00;102019.41;5062854;28;20007;-75
2023/12/27 00:22:11;;;;;;;;;;;;;;;2.71;100.00;102025.41;5054669;28;19963;-75
2023/12/27 00:24:36;;;;;;;;;;;;;;;2.68;100.00;102024.41;5054125;28;19977;-75
2023/12/27 00:27:02;;;;;;;;;;;;;;;2.67;100.00;102027.81;5050792;28;19947;-75
2023/12/27 00:29:27;;;;;;;;;;;;;;;2.77;100.00;102036.03;5035991;28;20003;-75
2023/12/27 00:31:55;;;;;;;;;;;;;;;2.77;100.00;102040.28;5046000;28;19936;-75
2023/12/27 00:34:20;;;;;;;;;;;;;;;2.76;100.00;102047.19;5037983;28;19924;-75
2023/12/27 00:36:48;;;;;;;;;;;;;;;2.71;100.00;102045.25;5055668;28;19917;-75
2023/12/27 00:39:14;;;;;;;;;;;;;;;2.70;100.00;102038.28;5053020;28;20396;-75
2023/12/27 00:41:41;;;;;;;;;;;;;;;2.69;100.00;102029.66;5053254;28;19916;-75
2023/12/27 00:44:06;;;;;;;;;;;;;;;2.70;100.00;102038.28;5077696;28;20698;-75
2023/12/27 00:46:31;;;;;;;;;;;;;;;2.68;100.00;102035.63;5032052;28;19921;-75
2023/12/27 00:48:56;;;;;;;;;;;;;;;2.70;100.00;102034.00;5053516;28;19920;-75
2023/12/27 00:51:22;;;;;;;;;;;;;;;2.71;100.00;102025.41;5054495;28;19970;-75
2023/12/27 00:53:48;;;;;;;;;;;;;;;2.70;100.00;102017.56;5052976;28;19928;-75
2023/12/27 00:56:14;;;;;;;;;;;;;;;2.72;100.00;102031.47;5059396;28;19912;-75
2023/12/27 00:58:40;;;;;;;;;;;;;;;2.76;100.00;102021.31;5054282;28;19963;-75
2023/12/27 01:01:05;;;;;;;;;;;;;;;2.80;100.00;102016.25;5059539;28;19962;-75
2023/12/27 01:03:31;;;;;;;;;;;;;;;2.84;100.00;102020.72;5053848;28;19964;-75
2023/12/27 01:05:56;;;;;;;;;;;;;;;2.80;100.00;102019.69;5056223;28;20343;-75
2023/12/27 01:08:21;;;;;;;;;;;;;;;2.83;100.00;102030.19;5060073;28;20007;-75
2023/12/27 01:10:47;;;;;;;;;;;;;;;2.86;100.00;102032.00;5041074;28;19966;-75
2023/12/27 01:13:15;;;;;;;;;;;;;;;2.88;100.00;102027.78;5053519;28;19943;-75
2023/12/27 01:15:41;;;;;;;;;;;;;;;2.89;100.00;102029.56;5048230;28;20428;-76
2023/12/27 01:18:06;;;;;;;;;;;;;;;2.87;100.00;102031.19;5053432;28;20007;-75
2023/12/27 01:20:31;;;;;;;;;;;;;;;2.86;100.00;102032.91;5032375;28;19917;-75
2023/12/27 01:22:57;;;;;;;;;;;;;;;2.84;100.00;102024.19;5046813;28;19975;-75
2023/12/27 01:25:22;;;;;;;;;;;;;;;2.78;100.00;102024.81;5053387;28;19923;-75
2023/12/27 01:27:47;;;;;;;;;;;;;;;2.76;100.00;102021.31;5053328;28;19929;-75
2023/12/27 01:30:13;;;;;;;;;;;;;;;2.69;100.00;102021.88;5059674;28;20073;-74
2023/12/27 01:32:38;;;;;;;;;;;;;;;2.68;100.00;102016.66;5069314;28;19920;-75
2023/12/27 01:35:05;;;;;;;;;;;;;;;2.63;100.00;102011.31;5053486;28;20368;-75
2023/12/27 01:37:30;;;;;;;;;;;;;;;2.54;100.00;102010.91;5053665;28;20306;-75
2023/12/27 01:39:56;;;;;;;;;;;;;;;2.42;100.00;102009.59;5056053;28;19931;-75
2023/12/27 01:42:22;;;;;;;;;;;;;;;2.40;100.00;102010.38;5056649;28;19928;-75
2023/12/27 01:44:50;;;;;;;;;;;;;;;2.39;100.00;102003.44;5070583;28;19923;-75
2023/12/27 01:47:16;;;;;;;;;;;;;;;2.38;100.00;102004.25;5054377;28;20392;-75
2023/12/27 01:49:41;;;;;;;;;;;;;;;2.40;100.00;102008.66;5062402;28;20013;-75
2023/12/27 01:52:09;;;;;;;;;;;;;;;2.42;100.00;102013.91;5051869;28;19968;-75
2023/12/27 01:54:35;;;;;;;;;;;;;;;2.47;100.00;102017.56;5052386;28;19928;-75
2023/12/27 01:57:00;;;;;;;;;;;;;;;2.49;100.00;102008.16;5050197;28;20315;-75
2023/12/27 01:59:26;;;;;;;;;;;;;;;2.51;100.00;102022.00;5027873;28;19974;-75
2023/12/27 02:01:52;;;;;;;;;;;;;;;2.54;100.00;102026.44;5058006;28;19920;-75
2023/12/27 02:04:17;;;;;;;;;;;;;;;2.50;100.00;102021.97;5052729;28;20342;-75
2023/12/27 02:06:43;;;;;;;;;;;;;;;2.47;100.00;102014.06;5053815;28;20015;-75
2023/12/27 02:09:11;;;;;;;;;;;;;;;2.46;100.00;102018.38;5035354;28;19923;-75
2023/12/27 02:11:39;;;;;;;;;;;;;;;2.48;100.00;102010.69;5054597;28;20403;-75
2023/12/27 02:14:07;;;;;;;;;;;;;;;2.49;100.00;101999.50;5036451;28;19924;-75
2023/12/27 02:16:34;;;;;;;;;;;;;;;2.54;100.00;101995.38;5055110;28;19928;-75
2023/12/27 02:19:01;;;;;;;;;;;;;;;2.56;100.00;101998.94;5052360;28;19913;-76
2023/12/27 02:21:27;;;;;;;;;;;;;;;2.60;100.00;102001.69;5036930;28;19959;-75
2023/12/27 02:23:58;;;;;;;;;;;;;;;2.62;100.00;101999.16;5023909;28;19963;-75
2023/12/27 02:26:23;;;;;;;;;;;;;;;2.61;100.00;101997.41;5032720;28;19925;-75
2023/12/27 02:28:51;;;;;;;;;;;;;;;2.64;100.00;102000.09;5019896;28;20015;-75
2023/12/27 02:31:16;;;;;;;;;;;;;;;2.65;100.00;101991.53;5016311;28;19921;-75
2023/12/27 02:33:44;;;;;;;;;;;;;;;2.69;100.00;101990.81;5016679;28;19920;-75
2023/12/27 02:36:09;;;;;;;;;;;;;;;2.77;100.00;102001.47;5046001;28;20372;-75
2023/12/27 02:38:36;;;;;;;;;;;;;;;2.73;100.00;101990.13;5100249;23;19932;-74
2023/12/27 02:41:02;;;;;;;;;;;;;;;2.77;100.00;101989.44;5128556;27;19951;-74
2023/12/27 02:43:28;;;;;;;;;;;;;;;2.82;100.00;101992.19;5097248;28;19912;-74
2023/12/27 02:45:53;;;;;;;;;;;;;;;2.84;100.00;101984.47;5099075;28;19927;-74
2023/12/27 02:48:19;;;;;;;;;;;;;;;2.82;100.00;101975.78;5084113;28;19923;-74
2023/12/27 02:50:44;;;;;;;;;;;;;;;2.83;100.00;101983.59;5084625;27;20413;-74
2023/12/27 02:53:10;;;;;;;;;;;;;;;2.87;100.00;101979.41;5078969;28;19919;-74
2023/12/27 02:55:35;;;;;;;;;;;;;;;2.81;100.00;101981.78;5079761;28;19935;-74
2023/12/27 02:58:01;;;;;;;;;;;;;;;2.79;100.00;101971.34;5076402;28;20327;-74
2023/12/27 03:00:26;;;;;;;;;;;;;;;2.77;100.00;101952.28;5096814;28;20321;-74
2023/12/27 03:02:52;;;;;;;;;;;;;;;2.75;100.00;101949.63;5068928;28;19920;-74
2023/12/27 03:05:17;;;;;;;;;;;;;;;2.73;100.00;101946.13;5183112;22;19935;-74
2023/12/27 03:07:42;;;;;;;;;;;;;;;2.74;100.00;101945.31;5060106;28;19987;-74
2023/12/27 03:10:11;;;;;;;;;;;;;;;2.72;100.00;101949.53;5078882;23;19928;-74
2023/12/27 03:12:36;;;;;;;;;;;;;;;2.78;100.00;101939.41;5052200;28;19925;-74
2023/12/27 03:15:02;;;;;;;;;;;;;;;2.84;100.00;101938.75;5044639;28;19921;-74
2023/12/27 03:17:28;;;;;;;;;;;;;;;2.89;100.00;101951.88;5032919;28;19917;-74
2023/12/27 03:19:53;;;;;;;;;;;;;;;3.02;100.00;101942.88;5031744;28;19948;-74
2023/12/27 03:22:18;;;;;;;;;;;;;;;3.02;100.00;101937.69;5055993;28;20038;-74
2023/12/27 03:24:43;;;;;;;;;;;;;;;3.04;100.00;101930.84;5055153;28;20291;-74
2023/12/27 03:27:11;;;;;;;;;;;;;;;3.08;100.00;101928.41;5072405;28;20467;-74
2023/12/27 03:29:37;;;;;;;;;;;;;;;3.06;100.00;101914.53;5039228;28;19916;-74
2023/12/27 03:32:02;;;;;;;;;;;;;;;3.08;100.00;101907.69;5072806;28;19935;-74
2023/12/27 03:34:30;;;;;;;;;;;;;;;3.08;100.00;101906.81;5072039;28;19916;-74
2023/12/27 03:36:55;;;;;;;;;;;;;;;3.08;100.00;101902.53;5064652;28;20002;-74
2023/12/27 03:39:20;;;;;;;;;;;;;;;3.11;100.00;101905.22;5037930;28;20400;-74
2023/12/27 03:41:45;;;;;;;;;;;;;;;3.14;100.00;101895.81;5057688;28;19923;-74
2023/12/27 03:44:11;;;;;;;;;;;;;;;3.17;100.00;101895.91;5047311;28;20291;-74
2023/12/27 03:46:37;;;;;;;;;;;;;;;3.17;100.00;101885.56;5055677;28;19921;-74
2023/12/27 03:49:02;;;;;;;;;;;;;;;3.18;100.00;101877.84;5071504;28;19916;-74
2023/12/27 03:51:28;;;;;;;;;;;;;;;3.18;100.00;101876.97;5071727;28;20283;-74
2023/12/27 03:53:54;;;;;;;;;;;;;;;3.18;100.00;101872.66;5040815;28;19917;-74
2023/12/27 03:56:19;;;;;;;;;;;;;;;3.18;100.00;101864.88;5052151;28;19942;-75
2023/12/27 03:58:44;;;;;;;;;;;;;;;3.17;100.00;101862.25;5040332;28;20020;-74
2023/12/27 04:01:12;;;;;;;;;;;;;;;3.16;100.00;101858.78;5067865;28;19964;-74
2023/12/27 04:03:39;;;;;;;;;;;;;;;3.15;100.00;101851.84;5041444;28;20334;-74
2023/12/27 04:06:05;;;;;;;;;;;;;;;3.15;100.00;101845.75;5068819;28;19920;-74
2023/12/27 04:08:30;;;;;;;;;;;;;;;3.17;100.00;101854.47;5034030;28;19991;-74
2023/12/27 04:10:55;;;;;;;;;;;;;;;3.19;100.00;101847.63;5052037;28;19998;-74
2023/12/27 04:13:22;;;;;;;;;;;;;;;3.19;100.00;101838.16;5035513;28;19970;-74
2023/12/27 04:15:47;;;;;;;;;;;;;;;3.21;100.00;101840.81;5035108;28;19963;-74
2023/12/27 04:18:12;;;;;;;;;;;;;;;3.21;100.00;101838.22;5043977;28;19960;-74
2023/12/27 04:20:38;;;;;;;;;;;;;;;3.23;100.00;101833.94;5037784;28;19951;-74
2023/12/27 04:23:03;;;;;;;;;;;;;;;3.24;100.00;101825.34;5046147;28;20442;-74
2023/12/27 04:25:28;;;;;;;;;;;;;;;3.27;100.00;101830.63;5034015;28;19924;-74
2023/12/27 04:27:54;;;;;;;;;;;;;;;3.28;100.00;101832.41;5037865;28;20279;-74
2023/12/27 04:30:19;;;;;;;;;;;;;;;3.29;100.00;101824.69;5054174;28;20387;-74
2023/12/27 04:32:45;;;;;;;;;;;;;;;3.33;100.00;101830.84;5068412;28;19924;-74
2023/12/27 04:35:10;;;;;;;;;;;;;;;3.37;100.00;101824.06;5036264;28;19928;-74
2023/12/27 04:37:35;;;;;;;;;;;;;;;3.41;100.00;101829.41;5037280;28;19956;-74
2023/12/27 04:40:01;;;;;;;;;;;;;;;3.45;100.00;101828.69;5053846;28;19917;-74
2023/12/27 04:42:27;;;;;;;;;;;;;;;3.49;100.00;101828.78;5054601;28;19927;-74
2023/12/27 04:44:52;;;;;;;;;;;;;;;3.55;100.00;101816.91;5038067;28;19929;-74
2023/12/27 04:47:18;;;;;;;;;;;;;;;3.60;100.00;101820.50;5043054;28;20492;-74
2023/12/27 04:49:43;;;;;;;;;;;;;;;3.62;100.00;101817.97;5047395;28;20397;-74
2023/12/27 04:52:09;;;;;;;;;;;;;;;3.75;100.00;101822.72;5037712;28;20378;-74
2023/12/27 04:54:34;;;;;;;;;;;;;;;3.73;100.00;101816.59;5026347;28;19940;-74
2023/12/27 04:56:59;;;;;;;;;;;;;;;3.71;100.00;101810.50;5046913;28;19955;-74
2023/12/27 04:59:25;;;;;;;;;;;;;;;3.78;100.00;101819.38;5053742;28;19920;-74
2023/12/27 05:01:50;;;;;;;;;;;;;;;3.82;100.00;101821.19;5054508;28;20255;-74
2023/12/27 05:04:16;;;;;;;;;;;;;;;3.96;100.00;101808.69;5034882;28;20073;-74
2023/12/27 05:06:41;;;;;;;;;;;;;;;3.99;100.00;101808.75;5054080;28;19927;-74
2023/12/27 05:09:06;;;;;;;;;;;;;;;3.92;100.00;101801.63;5037480;28;20398;-74
2023/12/27 05:11:32;;;;;;;;;;;;;;;4.02;100.00;101790.69;5033876;28;19931;-73
2023/12/27 05:13:57;;;;;;;;;;;;;;;3.98;100.00;101788.88;5051639;28;20334;-74
2023/12/27 05:16:23;;;;;;;;;;;;;;;3.94;100.00;101789.59;5037883;28;19927;-74
2023/12/27 05:18:51;;;;;;;;;;;;;;;3.94;100.00;101776.63;5053618;28;19916;-74
2023/12/27 05:21:18;;;;;;;;;;;;;;;3.96;100.00;101782.75;5054244;28;20337;-74
2023/12/27 05:23:43;;;;;;;;;;;;;;;4.06;100.00;101774.41;5069223;28;20014;-74
2023/12/27 05:26:12;;;;;;;;;;;;;;;4.03;100.00;101774.31;5031886;28;20614;-74
2023/12/27 05:28:37;;;;;;;;;;;;;;;4.02;100.00;101769.94;5067079;28;19913;-74
2023/12/27 05:31:03;;;;;;;;;;;;;;;4.03;100.00;101773.44;5036017;28;19920;-74
2023/12/27 05:33:28;;;;;;;;;;;;;;;4.07;100.00;101764.94;5030779;28;19928;-74
2023/12/27 05:35:53;;;;;;;;;;;;;;;4.26;100.00;101766.34;5033020;28;19921;-74
2023/12/27 05:38:19;;;;;;;;;;;;;;;4.18;100.00;101762.63;5048937;28;20663;-74
2023/12/27 05:40:44;;;;;;;;;;;;;;;4.24;100.00;101766.28;5030483;28;19924;-74
2023/12/27 05:43:11;;;;;;;;;;;;;;;4.27;100.00;101770.69;5052949;28;19924;-74
2023/12/27 05:45:36;;;;;;;;;;;;;;;4.30;100.00;101763.00;5048179;28;19916;-74
2023/12/27 05:48:01;;;;;;;;;;;;;;;4.24;100.00;101765.38;5063911;28;20360;-74
2023/12/27 05:50:26;;;;;;;;;;;;;;;4.30;100.00;101766.47;5029518;28;19927;-74
2023/12/27 05:52:54;;;;;;;;;;;;;;;4.33;100.00;101765.69;5050438;28;19932;-74
2023/12/27 05:55:19;;;;;;;;;;;;;;;4.24;100.00;101758.50;5035932;28;19928;-74
2023/12/27 05:57:45;;;;;;;;;;;;;;;4.29;100.00;101749.13;5044671;28;20005;-74
2023/12/27 06:00:11;;;;;;;;;;;;;;;4.18;100.00;101740.19;5050419;28;19916;-74
2023/12/27 06:02:36;;;;;;;;;;;;;;;4.11;100.00;101741.72;5036635;28;19920;-74
2023/12/27 06:05:02;;;;;;;;;;;;;;;4.08;100.00;101748.50;5036056;28;20365;-74
2023/12/27 06:07:27;;;;;;;;;;;;;;;4.08;100.00;101741.63;5048291;28;20342;-75
2023/12/27 06:09:53;;;;;;;;;;;;;;;4.14;100.00;101736.59;5032008;28;19920;-74
2023/12/27 06:12:19;;;;;;;;;;;;;;;4.12;100.00;101733.09;5051544;28;19924;-74
2023/12/27 06:14:45;;;;;;;;;;;;;;;4.06;100.00;101727.72;5033961;28;19974;-75
2023/12/27 06:17:12;;;;;;;;;;;;;;;4.01;100.00;101720.63;5041016;28;20368;-75
2023/12/27 06:19:38;;;;;;;;;;;;;;;4.05;100.00;101719.88;5055069;28;20348;-75
2023/12/27 06:22:03;;;;;;;;;;;;;;;4.05;100.00;101713.00;5038022;28;19920;-75
2023/12/27 06:24:29;;;;;;;;;;;;;;;4.00;100.00;101704.19;5032817;28;19924;-75
2023/12/27 06:26:54;;;;;;;;;;;;;;;3.98;100.00;101705.88;5037876;28;19928;-76
2023/12/27 06:29:19;;;;;;;;;;;;;;;3.96;100.00;101694.56;5068015;28;19928;-75
2023/12/27 06:31:45;;;;;;;;;;;;;;;3.95;100.00;101697.97;5027942;28;19924;-75
2023/12/27 06:34:10;;;;;;;;;;;;;;;4.03;100.00;101687.84;5051620;28;20019;-76
2023/12/27 06:36:35;;;;;;;;;;;;;;;3.99;100.00;101690.38;5035508;28;20398;-75
2023/12/27 06:39:01;;;;;;;;;;;;;;;4.02;100.00;101680.91;5047548;28;19960;-76
2023/12/27 06:41:27;;;;;;;;;;;;;;;3.93;100.00;101678.91;5049361;28;19917;-76
2023/12/27 06:43:53;;;;;;;;;;;;;;;3.91;100.00;101665.91;5026720;28;19922;-77
2023/12/27 06:46:20;;;;;;;;;;;;;;;4.01;100.00;101669.66;5056635;28;19924;-77
2023/12/27 06:48:46;;;;;;;;;;;;;;;3.95;100.00;101656.50;5056770;28;19924;-78
2023/12/27 06:51:12;;;;;;;;;;;;;;;3.96;100.00;101653.94;5034986;28;19921;-76
2023/12/27 06:53:39;;;;;;;;;;;;;;;4.10;100.00;101658.66;5054025;28;19916;-76
2023/12/27 06:56:04;;;;;;;;;;;;;;;4.06;100.00;101651.63;5040433;28;20061;-77
2023/12/27 06:58:30;;;;;;;;;;;;;;;4.16;100.00;101651.91;5037225;28;19955;-77
2023/12/27 07:00:56;;;;;;;;;;;;;;;4.10;100.00;101648.28;5035156;28;19924;-77
2023/12/27 07:03:22;;;;;;;;;;;;;;;4.27;100.00;101644.44;5050587;28;19924;-77
2023/12/27 07:05:47;;;;;;;;;;;;;;;4.29;100.00;101650.53;5038735;28;20299;-76
2023/12/27 07:08:13;;;;;;;;;;;;;;;4.23;100.00;101642.59;5027739;28;19916;-77
2023/12/27 07:10:38;;;;;;;;;;;;;;;4.38;100.00;101639.50;5056320;28;20414;-78
2023/12/27 07:13:03;;;;;;;;;;;;;;;4.35;100.00;101647.22;5051564;28;20020;-77
2023/12/27 07:15:29;;;;;;;;;;;;;;;4.27;100.00;101639.25;5039767;28;19924;-77
2023/12/27 07:17:54;;;;;;;;;;;;;;;4.40;100.00;101645.63;5039190;28;19930;-78
2023/12/27 07:20:19;;;;;;;;;;;;;;;4.55;100.00;101632.16;5054647;28;19930;-78
2023/12/27 07:22:46;;;;;;;;;;;;;;;4.51;100.00;101641.59;5048975;28;19920;-79
2023/12/27 07:25:12;;;;;;;;;;;;;;;4.43;100.00;101635.34;5030935;28;19920;-77
2023/12/27 07:27:37;;;;;;;;;;;;;;;4.49;100.00;101637.22;5037478;28;20034;-78
2023/12/27 07:30:02;;;;;;;;;;;;;;;4.49;100.00;101645.00;5024622;28;19921;-78
2023/12/27 07:32:30;;;;;;;;;;;;;;;4.54;100.00;101637.31;5053568;28;20236;-78
2023/12/27 07:34:57;;;;;;;;;;;;;;;4.58;100.00;101629.66;5043634;28;20291;-79
2023/12/27 07:37:25;;;;;;;;;;;;;;;4.67;100.00;101631.63;5056198;28;19920;-77
2023/12/27 07:39:53;;;;;;;;;;;;;;;4.74;100.00;101635.22;5048403;28;19928;-78
2023/12/27 07:42:19;;;;;;;;;;;;;;;4.66;100.00;101632.47;5050511;28;19970;-77
2023/12/27 07:44:45;;;;;;;;;;;;;;;4.76;100.00;101634.44;5049713;28;20292;-77
2023/12/27 07:47:10;;;;;;;;;;;;;;;4.80;100.00;101619.81;5055976;28;19924;-78
2023/12/27 07:49:35;;;;;;;;;;;;;;;4.78;100.00;101635.34;5038911;28;19928;-79
2023/12/27 07:52:01;;;;;;;;;;;;;;;4.78;100.00;101635.34;5046246;28;19913;-78
2023/12/27 07:54:26;;;;;;;;;;;;;;;4.81;100.00;101627.66;5051594;28;20375;-78
2023/12/27 07:56:51;;;;;;;;;;;;;;;4.93;100.00;101626.16;5056176;28;20372;-78
2023/12/27 07:59:17;;;;;;;;;;;;;;;4.96;100.00;101626.25;5054606;28;19924;-77
2023/12/27 08:01:43;;;;;;;;;;;;;;;5.04;100.00;101622.09;5054816;28;20015;-78
2023/12/27 08:04:09;;;;;;;;;;;;;;;5.01;100.00;101614.25;5043017;28;19921;-78
2023/12/27 08:06:34;;;;;;;;;;;;;;;4.97;100.00;101620.22;5069541;28;19983;-77
2023/12/27 08:08:59;;;;;;;;;;;;;;;5.07;100.00;101619.59;5039385;28;19935;-78
2023/12/27 08:11:25;;;;;;;;;;;;;;;5.08;100.00;101621.34;5036815;28;19924;-77
2023/12/27 08:13:50;;;;;;;;;;;;;;;5.15;100.00;101618.03;5051988;28;19943;-77
2023/12/27 08:16:15;;;;;;;;;;;;;;;5.16;100.00;101614.59;5050292;28;19925;-77
2023/12/27 08:18:44;;;;;;;;;;;;;;;5.19;100.00;101608.63;5054148;28;20026;-77
2023/12/27 08:21:09;;;;;;;;;;;;;;;5.31;100.00;101601.06;5038148;28;19931;-78
2023/12/27 08:23:36;;;;;;;;;;;;;;;5.26;100.00;101599.22;5036663;28;19921;-78
2023/12/27 08:26:06;;;;;;;;;;;;;;;5.30;100.00;101594.13;5053718;28;19932;-78
2023/12/27 08:28:32;;;;;;;;;;;;;;;5.41;100.00;101593.50;5054227;28;19919;-77
2023/12/27 08:30:59;;;;;;;;;;;;;;;5.53;100.00;101594.63;5034602;28;20015;-75
2023/12/27 08:33:24;;;;;;;;;;;;;;;5.52;100.00;101592.88;5052137;28;19966;-76
2023/12/27 08:35:50;;;;;;;;;;;;;;;5.66;100.00;101585.38;5053509;28;20299;-77
2023/12/27 08:38:16;;;;;;;;;;;;;;;5.77;100.00;101579.50;5035842;28;20008;-77
2023/12/27 08:40:43;;;;;;;;;;;;;;;5.68;100.00;101562.84;5054409;28;20019;-78
2023/12/27 08:43:08;;;;;;;;;;;;;;;5.78;100.00;101571.72;5035543;28;20034;-77
2023/12/27 08:45:34;;;;;;;;;;;;;;;5.84;100.00;101564.03;5037570;28;19925;-78
2023/12/27 08:48:00;;;;;;;;;;;;;;;5.87;100.00;101566.69;5037360;28;19960;-77
2023/12/27 08:50:25;;;;;;;;;;;;;;;5.91;100.00;101554.63;5054138;28;20086;-78
2023/12/27 08:52:50;;;;;;;;;;;;;;;5.96;100.00;101542.59;5041231;28;19917;-78
2023/12/27 08:55:16;;;;;;;;;;;;;;;6.07;100.00;101545.41;5035982;28;19920;-76
2023/12/27 08:57:41;;;;;;;;;;;;;;;6.22;100.00;101556.09;5037446;28;19924;-75
2023/12/27 09:00:10;;;;;;;;;;;;;;;6.27;100.00;101542.28;5046983;28;20307;-78
2023/12/27 09:02:36;;;;;;;;;;;;;;;6.38;100.00;101543.34;5033260;28;20273;-78
2023/12/27 09:05:05;;;;;;;;;;;;;;;6.35;100.00;101533.75;5043521;28;19927;-76
2023/12/27 09:07:31;;;;;;;;;;;;;;;6.44;100.00;101539.94;5051476;28;19929;-75
2023/12/27 09:09:57;;;;;;;;;;;;;;;6.49;100.00;101544.38;5051644;28;20041;-80
2023/12/27 09:12:23;;;;;;;;;;;;;;;6.48;100.00;101532.25;5054237;28;19927;-81
2023/12/27 09:14:48;;;;;;;;;;;;;;;6.42;100.00;101529.50;5037188;28;19920;-80
2023/12/27 09:17:15;;;;;;;;;;;;;;;6.50;100.00;101530.53;5056762;28;19978;-80
2023/12/27 09:19:41;;;;;;;;;;;;;;;6.47;100.00;101535.69;5033468;28;20427;-81
2023/12/27 09:22:07;;;;;;;;;;;;;;;6.62;100.00;101540.25;5047290;28;20007;-80
2023/12/27 09:24:33;;;;;;;;;;;;;;;6.58;100.00;101548.91;5053886;28;19916;-81
2023/12/27 09:26:59;;;;;;;;;;;;;;;6.64;100.00;101527.25;5071609;28;20273;-85
2023/12/27 09:29:24;;;;;;;;;;;;;;;6.65;100.00;101502.97;5033527;28;19942;-83
2023/12/27 09:31:49;;;;;;;;;;;;;;;6.68;100.00;101514.31;5051421;28;20027;-85
2023/12/27 09:34:14;;;;;;;;;;;;;;;6.74;100.00;101511.81;5051175;28;19994;-85
2023/12/27 09:36:40;;;;;;;;;;;;;;;6.68;100.00;101509.13;5047702;28;19921;-86
2023/12/27 09:39:06;;;;;;;;;;;;;;;6.63;100.00;101509.91;5059998;28;20320;-86
2023/12/27 09:41:33;;;;;;;;;;;;;;;6.88;100.00;101517.22;5052946;28;19921;-81
2023/12/27 09:44:00;;;;;;;;;;;;;;;6.75;100.00;101494.44;5037151;28;19924;-80
2023/12/27 09:46:26;;;;;;;;;;;;;;;6.85;100.00;101500.66;5024997;28;19925;-80
2023/12/27 09:48:52;;;;;;;;;;;;;;;6.75;100.00;101502.25;5067502;28;19963;-81
2023/12/27 09:51:23;;;;;;;;;;;;;;;6.77;100.00;101484.94;5036739;28;19921;-80
2023/12/27 09:53:49;;;;;;;;;;;;;;;6.79;100.00;101488.41;5044700;28;19917;-83
2023/12/27 09:56:14;;;;;;;;;;;;;;;7.09;100.00;101489.69;5051745;28;19932;-85
2023/12/27 09:58:40;;;;;;;;;;;;;;;7.11;100.00;101487.97;5044441;28;19974;-87
2023/12/27 10:01:05;;;;;;;;;;;;;;;7.17;100.00;101498.50;5049132;28;20364;-84
2023/12/27 10:03:35;;;;;;;;;;;;;;;7.10;100.00;101499.28;5049581;28;19916;-83
2023/12/27 10:06:20;;;;;;;;;;;;;;;7.31;100.00;101490.81;5050480;28;20386;-85
2023/12/27 10:08:46;;;;;;;;;;;;;;;7.19;100.00;101499.38;5051442;28;19916;-84
2023/12/27 10:11:11;;;;;;;;;;;;;;;7.37;100.00;101490.03;5049819;28;20322;-82
2023/12/27 10:13:38;;;;;;;;;;;;;;;7.39;100.00;101493.53;5063593;28;19924;-84
2023/12/27 10:16:04;;;;;;;;;;;;;;;7.51;100.00;101498.88;5053238;28;20376;-84
2023/12/27 10:18:30;;;;;;;;;;;;;;;7.50;100.00;101486.72;5031433;28;19920;-83
2023/12/27 10:20:55;;;;;;;;;;;;;;;7.51;100.00;101475.41;5036013;28;19921;-83
2023/12/27 10:23:21;;;;;;;;;;;;;;;7.70;100.00;101478.22;5032489;28;19982;-85
2023/12/27 10:25:47;;;;;;;;;;;;;;;7.54;100.00;101485.91;5033585;28;19951;-86
2023/12/27 10:28:15;;;;;;;;;;;;;;;7.60;100.00;101483.34;5036982;28;19950;-81
2023/12/27 10:30:40;;;;;;;;;;;;;;;7.72;100.00;101472.16;5051277;28;19920;-81
2023/12/27 10:33:05;;;;;;;;;;;;;;;7.78;100.00;101463.53;5067000;28;19939;-82
2023/12/27 10:35:39;;;;;;;;;;;;;;;7.79;100.00;101460.06;5036523;28;19936;-81
2023/12/27 10:38:05;;;;;;;;;;;;;;;7.78;100.00;101447.88;5037046;28;20003;-80
2023/12/27 10:40:31;;;;;;;;;;;;;;;7.78;100.00;101450.47;5037940;28;20023;-85
2023/12/27 10:42:57;;;;;;;;;;;;;;;7.89;100.00;101437.56;5049300;28;19917;-85
2023/12/27 10:45:22;;;;;;;;;;;;;;;7.92;100.00;101437.56;5036750;28;20015;-85
2023/12/27 10:47:50;;;;;;;;;;;;;;;7.87;100.00;101429.69;5033077;28;19929;-81
2023/12/27 10:50:19;;;;;;;;;;;;;;;8.10;100.00;101424.69;5048790;28;19919;-80
2023/12/27 10:52:49;;;;;;;;;;;;;;;8.06;100.00;101414.19;5049510;28;19955;-81
2023/12/27 10:55:17;;;;;;;;;;;;;;;8.14;100.00;101429.03;5051365;28;20003;-81
2023/12/27 10:57:44;;;;;;;;;;;;;;;8.22;100.00;101431.72;5060243;28;19923;-83
2023/12/27 11:00:10;;;;;;;;;;;;;;;8.20;100.00;101425.59;5036218;28;19916;-82
2023/12/27 11:02:41;;;;;;;;;;;;;;;8.20;100.00;101417.75;5060406;28;19924;-84
2023/12/27 11:05:07;;;;;;;;;;;;;;;8.21;100.00;101413.44;5053461;28;20265;-84
2023/12/27 11:07:35;;;;;;;;;;;;;;;8.24;100.00;101424.75;5038539;28;20019;-83
2023/12/27 11:10:01;;;;;;;;;;;;;;;8.16;100.00;101413.41;5055347;28;19920;-83
2023/12/27 11:12:27;;;;;;;;;;;;;;;8.30;100.00;101403.94;5043967;28;19925;-88
2023/12/27 11:14:55;;;;;;;;;;;;;;;8.43;100.00;101404.00;5070604;28;20016;-85
2023/12/27 11:17:21;;;;;;;;;;;;;;;8.35;100.00;101388.28;5043645;28;19932;-85
2023/12/27 11:19:47;;;;;;;;;;;;;;;8.32;100.00;101391.75;5050317;28;19917;-85
2023/12/27 11:22:12;;;;;;;;;;;;;;;8.45;100.00;101392.72;5055891;28;19912;-84
2023/12/27 11:24:39;;;;;;;;;;;;;;;8.38;100.00;101400.50;5045095;28;19962;-83
2023/12/27 11:27:04;;;;;;;;;;;;;;;8.52;100.00;101398.88;5040291;28;19929;-83
2023/12/27 11:29:31;;;;;;;;;;;;;;;8.33;100.00;101372.63;5035680;28;19962;-87
2023/12/27 11:31:58;;;;;;;;;;;;;;;8.39;100.00;101366.56;5049581;28;19962;-88
2023/12/27 11:34:26;;;;;;;;;;;;;;;8.56;100.00;101366.69;5054572;28;20454;-84
2023/12/27 11:36:51;;;;;;;;;;;;;;;8.47;100.00;101372.72;5055066;28;20376;-84
2023/12/27 11:39:20;;;;;;;;;;;;;;;8.31;100.00;101368.25;5040944;28;19917;-87
2023/12/27 11:41:47;;;;;;;;;;;;;;;8.30;100.00;101370.00;5045701;28;19932;-86
2023/12/27 11:44:17;;;;;;;;;;;;;;;8.25;100.00;101358.63;5065672;28;19913;-89
2023/12/27 11:46:43;;;;;;;;;;;;;;;8.40;100.00;101354.34;5040155;28;19921;-86
2023/12/27 11:49:08;;;;;;;;;;;;;;;8.51;100.00;101355.31;5052459;28;19913;-80
2023/12/27 11:51:34;;;;;;;;;;;;;;;8.35;100.00;101349.13;5044291;28;19923;-81
2023/12/27 11:54:04;;;;;;;;;;;;;;;8.37;100.00;101349.13;5045028;28;19920;-80
2023/12/27 11:56:30;;;;;;;;;;;;;;;8.53;100.00;101353.59;5070671;28;20345;-80
2023/12/27 11:58:56;;;;;;;;;;;;;;;8.53;100.00;101343.13;5038996;28;19966;-80
2023/12/27 12:01:24;;;;;;;;;;;;;;;8.48;100.00;101331.81;5070116;28;19917;-82
2023/12/27 12:04:10;;;;;;;;;;;;;;;8.43;100.00;101326.53;5043885;28;19974;-81
2023/12/27 12:06:46;;;;;;;;;;;;;;;8.54;100.00;101324.00;5032119;28;19959;-82
2023/12/27 12:09:13;;;;;;;;;;;;;;;8.51;100.00;101310.06;5053205;28;19920;-82
2023/12/27 12:11:42;;;;;;;;;;;;;;;8.69;100.00;101330.16;5037637;28;20355;-86
2023/12/27 12:14:07;;;;;;;;;;;;;;;8.57;100.00;101310.06;5071702;28;19955;-88
2023/12/27 12:16:34;;;;;;;;;;;;;;;8.68;100.00;101305.78;5039876;28;20347;-86
2023/12/27 12:19:00;;;;;;;;;;;;;;;8.62;100.00;101301.41;5040877;28;19916;-85
2023/12/27 12:21:28;;;;;;;;;;;;;;;8.52;100.00;101297.00;5063877;28;20357;-86
2023/12/27 12:23:54;;;;;;;;;;;;;;;8.63;100.00;101276.13;5053659;28;19916;-81
2023/12/27 12:26:19;;;;;;;;;;;;;;;8.58;100.00;101273.50;5061516;28;19940;-81
2023/12/27 12:28:58;;;;;;;;;;;;;;;8.82;100.00;101267.47;5042847;28;19927;-81